sensor_id;sensor_type;location;lat;lon;timestamp;temperature;humidity
51996;DHT22;38010;53.264;6.592;2023-07-02T00:01:36;20.60;96.50
51996;DHT22;38010;53.264;6.592;2023-07-02T00:04:02;20.70;96.40
51996;DHT22;38010;53.264;6.592;2023-07-02T00:06:28;20.60;96.30
51996;DHT22;38010;53.264;6.592;2023-07-02T00:08:54;20.60;96.40
51996;DHT22;38010;53.264;6.592;2023-07-02T00:11:19;20.60;96.30
51996;DHT22;38010;53.264;6.592;2023-07-02T00:13:45;20.60;96.20
51996;DHT22;38010;53.264;6.592;2023-07-02T00:16:10;20.60;96.20
51996;DHT22;38010;53.264;6.592;2023-07-02T00:18:36;20.60;96.20
51996;DHT22;38010;53.264;6.592;2023-07-02T00:21:02;20.60;96.20
51996;DHT22;38010;53.264;6.592;2023-07-02T00:23:30;20.60;96.20
51996;DHT22;38010;53.264;6.592;2023-07-02T00:25:57;20.60;96.40
51996;DHT22;38010;53.264;6.592;2023-07-02T00:28:23;20.60;96.20
51996;DHT22;38010;53.264;6.592;2023-07-02T00:30:49;20.60;96.20
51996;DHT22;38010;53.264;6.592;2023-07-02T00:33:15;20.60;96.10
51996;DHT22;38010;53.264;6.592;2023-07-02T00:35:41;20.50;96.10
51996;DHT22;38010;53.264;6.592;2023-07-02T00:38:07;20.50;96.10
51996;DHT22;38010;53.264;6.592;2023-07-02T00:40:33;20.50;96.00
51996;DHT22;38010;53.264;6.592;2023-07-02T00:42:58;20.60;96.00
51996;DHT22;38010;53.264;6.592;2023-07-02T00:45:24;20.60;96.00
51996;DHT22;38010;53.264;6.592;2023-07-02T00:47:54;20.50;95.90
51996;DHT22;38010;53.264;6.592;2023-07-02T00:50:21;20.50;95.90
51996;DHT22;38010;53.264;6.592;2023-07-02T00:52:48;20.50;95.90
51996;DHT22;38010;53.264;6.592;2023-07-02T00:55:14;20.50;95.90
51996;DHT22;38010;53.264;6.592;2023-07-02T00:57:39;20.50;95.90
51996;DHT22;38010;53.264;6.592;2023-07-02T01:00:07;20.50;95.90
51996;DHT22;38010;53.264;6.592;2023-07-02T01:02:33;20.50;95.90
51996;DHT22;38010;53.264;6.592;2023-07-02T01:04:58;20.50;96.00
51996;DHT22;38010;53.264;6.592;2023-07-02T01:07:25;20.50;95.90
51996;DHT22;38010;53.264;6.592;2023-07-02T01:09:51;20.50;95.90
51996;DHT22;38010;53.264;6.592;2023-07-02T01:12:17;20.50;95.90
51996;DHT22;38010;53.264;6.592;2023-07-02T01:14:49;20.50;95.80
51996;DHT22;38010;53.264;6.592;2023-07-02T01:17:16;20.50;95.90
51996;DHT22;38010;53.264;6.592;2023-07-02T01:19:52;20.50;95.80
51996;DHT22;38010;53.264;6.592;2023-07-02T01:22:20;20.40;95.80
51996;DHT22;38010;53.264;6.592;2023-07-02T01:24:47;20.40;95.80
51996;DHT22;38010;53.264;6.592;2023-07-02T01:27:15;20.40;95.70
51996;DHT22;38010;53.264;6.592;2023-07-02T01:29:41;20.40;95.70
51996;DHT22;38010;53.264;6.592;2023-07-02T01:32:07;20.40;95.80
51996;DHT22;38010;53.264;6.592;2023-07-02T01:34:34;20.40;96.00
51996;DHT22;38010;53.264;6.592;2023-07-02T01:37:01;20.40;95.70
51996;DHT22;38010;53.264;6.592;2023-07-02T01:39:26;20.40;95.70
51996;DHT22;38010;53.264;6.592;2023-07-02T01:42:12;20.40;95.60
51996;DHT22;38010;53.264;6.592;2023-07-02T01:44:40;20.40;95.50
51996;DHT22;38010;53.264;6.592;2023-07-02T01:47:05;20.40;95.70
51996;DHT22;38010;53.264;6.592;2023-07-02T01:49:31;20.40;95.70
51996;DHT22;38010;53.264;6.592;2023-07-02T01:51:57;20.30;95.90
51996;DHT22;38010;53.264;6.592;2023-07-02T01:54:25;20.40;95.70
51996;DHT22;38010;53.264;6.592;2023-07-02T01:56:55;20.30;95.70
51996;DHT22;38010;53.264;6.592;2023-07-02T01:59:21;20.40;95.60
51996;DHT22;38010;53.264;6.592;2023-07-02T02:01:46;20.30;95.60
51996;DHT22;38010;53.264;6.592;2023-07-02T02:04:12;20.30;95.60
51996;DHT22;38010;53.264;6.592;2023-07-02T02:06:40;20.30;95.60
51996;DHT22;38010;53.264;6.592;2023-07-02T02:09:06;20.30;95.60
51996;DHT22;38010;53.264;6.592;2023-07-02T02:11:39;20.30;95.60
51996;DHT22;38010;53.264;6.592;2023-07-02T02:14:05;20.30;95.60
51996;DHT22;38010;53.264;6.592;2023-07-02T02:16:30;20.30;95.60
51996;DHT22;38010;53.264;6.592;2023-07-02T02:18:59;20.30;95.60
51996;DHT22;38010;53.264;6.592;2023-07-02T02:21:25;20.30;95.60
51996;DHT22;38010;53.264;6.592;2023-07-02T02:23:51;20.30;95.60
51996;DHT22;38010;53.264;6.592;2023-07-02T02:26:17;20.30;95.60
51996;DHT22;38010;53.264;6.592;2023-07-02T02:28:43;20.30;95.60
51996;DHT22;38010;53.264;6.592;2023-07-02T02:31:09;20.30;95.60
51996;DHT22;38010;53.264;6.592;2023-07-02T02:33:35;20.30;95.60
51996;DHT22;38010;53.264;6.592;2023-07-02T02:36:04;20.30;95.60
51996;DHT22;38010;53.264;6.592;2023-07-02T02:38:30;20.20;95.60
51996;DHT22;38010;53.264;6.592;2023-07-02T02:40:55;20.20;95.60
51996;DHT22;38010;53.264;6.592;2023-07-02T02:43:21;20.30;95.60
51996;DHT22;38010;53.264;6.592;2023-07-02T02:45:47;20.20;95.60
51996;DHT22;38010;53.264;6.592;2023-07-02T02:48:13;20.20;95.60
51996;DHT22;38010;53.264;6.592;2023-07-02T02:50:39;20.20;95.60
51996;DHT22;38010;53.264;6.592;2023-07-02T02:53:07;20.20;95.60
51996;DHT22;38010;53.264;6.592;2023-07-02T02:55:33;20.20;95.70
51996;DHT22;38010;53.264;6.592;2023-07-02T02:57:59;20.20;95.60
51996;DHT22;38010;53.264;6.592;2023-07-02T03:00:25;20.20;95.60
51996;DHT22;38010;53.264;6.592;2023-07-02T03:02:50;20.20;95.60
51996;DHT22;38010;53.264;6.592;2023-07-02T03:05:16;20.20;95.60
51996;DHT22;38010;53.264;6.592;2023-07-02T03:07:42;20.20;95.60
51996;DHT22;38010;53.264;6.592;2023-07-02T03:10:08;20.20;95.60
51996;DHT22;38010;53.264;6.592;2023-07-02T03:12:34;20.10;95.60
51996;DHT22;38010;53.264;6.592;2023-07-02T03:15:00;20.20;95.60
51996;DHT22;38010;53.264;6.592;2023-07-02T03:17:26;20.20;95.60
51996;DHT22;38010;53.264;6.592;2023-07-02T03:19:51;20.20;95.60
51996;DHT22;38010;53.264;6.592;2023-07-02T03:22:17;20.20;95.60
51996;DHT22;38010;53.264;6.592;2023-07-02T03:24:43;20.20;95.50
51996;DHT22;38010;53.264;6.592;2023-07-02T03:27:09;20.10;95.50
51996;DHT22;38010;53.264;6.592;2023-07-02T03:29:35;20.10;95.60
51996;DHT22;38010;53.264;6.592;2023-07-02T03:32:01;20.10;95.60
51996;DHT22;38010;53.264;6.592;2023-07-02T03:34:27;20.10;95.50
51996;DHT22;38010;53.264;6.592;2023-07-02T03:36:53;20.10;95.50
51996;DHT22;38010;53.264;6.592;2023-07-02T03:39:18;20.10;95.70
51996;DHT22;38010;53.264;6.592;2023-07-02T03:41:44;20.10;95.50
51996;DHT22;38010;53.264;6.592;2023-07-02T03:44:10;20.10;95.50
51996;DHT22;38010;53.264;6.592;2023-07-02T03:46:36;20.10;95.50
51996;DHT22;38010;53.264;6.592;2023-07-02T03:49:04;20.10;95.50
51996;DHT22;38010;53.264;6.592;2023-07-02T03:51:31;20.10;95.40
51996;DHT22;38010;53.264;6.592;2023-07-02T03:53:58;20.10;95.50
51996;DHT22;38010;53.264;6.592;2023-07-02T03:56:24;20.10;95.50
51996;DHT22;38010;53.264;6.592;2023-07-02T03:58:50;20.10;95.40
51996;DHT22;38010;53.264;6.592;2023-07-02T04:01:16;20.10;95.40
51996;DHT22;38010;53.264;6.592;2023-07-02T04:03:49;20.10;95.40
51996;DHT22;38010;53.264;6.592;2023-07-02T04:06:15;20.10;95.30
51996;DHT22;38010;53.264;6.592;2023-07-02T04:08:41;20.10;95.30
51996;DHT22;38010;53.264;6.592;2023-07-02T04:11:07;20.10;95.40
51996;DHT22;38010;53.264;6.592;2023-07-02T04:13:33;20.10;95.40
51996;DHT22;38010;53.264;6.592;2023-07-02T04:15:58;20.10;95.40
51996;DHT22;38010;53.264;6.592;2023-07-02T04:18:24;20.10;95.30
51996;DHT22;38010;53.264;6.592;2023-07-02T04:20:50;20.10;95.30
51996;DHT22;38010;53.264;6.592;2023-07-02T04:23:15;20.10;95.40
51996;DHT22;38010;53.264;6.592;2023-07-02T04:25:41;20.10;95.40
51996;DHT22;38010;53.264;6.592;2023-07-02T04:28:07;20.10;95.30
51996;DHT22;38010;53.264;6.592;2023-07-02T04:30:33;20.10;95.30
51996;DHT22;38010;53.264;6.592;2023-07-02T04:33:00;20.10;95.30
51996;DHT22;38010;53.264;6.592;2023-07-02T04:35:25;20.10;95.30
51996;DHT22;38010;53.264;6.592;2023-07-02T04:37:51;20.10;95.30
51996;DHT22;38010;53.264;6.592;2023-07-02T04:40:17;20.10;95.30
51996;DHT22;38010;53.264;6.592;2023-07-02T04:42:43;20.10;95.40
51996;DHT22;38010;53.264;6.592;2023-07-02T04:45:13;20.10;95.40
51996;DHT22;38010;53.264;6.592;2023-07-02T04:47:44;20.10;95.30
51996;DHT22;38010;53.264;6.592;2023-07-02T04:50:10;20.10;95.30
51996;DHT22;38010;53.264;6.592;2023-07-02T04:52:37;20.10;95.30
51996;DHT22;38010;53.264;6.592;2023-07-02T04:55:04;20.10;95.30
51996;DHT22;38010;53.264;6.592;2023-07-02T04:57:30;20.10;95.30
51996;DHT22;38010;53.264;6.592;2023-07-02T04:59:56;20.10;95.30
51996;DHT22;38010;53.264;6.592;2023-07-02T05:02:21;20.10;95.20
51996;DHT22;38010;53.264;6.592;2023-07-02T05:04:47;20.10;95.20
51996;DHT22;38010;53.264;6.592;2023-07-02T05:07:13;20.10;95.20
51996;DHT22;38010;53.264;6.592;2023-07-02T05:09:38;20.10;95.10
51996;DHT22;38010;53.264;6.592;2023-07-02T05:12:04;20.10;95.10
51996;DHT22;38010;53.264;6.592;2023-07-02T05:14:30;20.10;95.10
51996;DHT22;38010;53.264;6.592;2023-07-02T05:16:56;20.10;95.10
51996;DHT22;38010;53.264;6.592;2023-07-02T05:19:21;20.10;95.00
51996;DHT22;38010;53.264;6.592;2023-07-02T05:21:47;20.20;95.10
51996;DHT22;38010;53.264;6.592;2023-07-02T05:24:13;20.20;95.10
51996;DHT22;38010;53.264;6.592;2023-07-02T05:26:38;20.20;95.00
51996;DHT22;38010;53.264;6.592;2023-07-02T05:29:04;20.20;94.90
51996;DHT22;38010;53.264;6.592;2023-07-02T05:31:30;20.20;94.80
51996;DHT22;38010;53.264;6.592;2023-07-02T05:33:56;20.20;94.70
51996;DHT22;38010;53.264;6.592;2023-07-02T05:36:22;20.20;94.70
51996;DHT22;38010;53.264;6.592;2023-07-02T05:38:48;20.10;94.60
51996;DHT22;38010;53.264;6.592;2023-07-02T05:41:21;20.10;94.70
51996;DHT22;38010;53.264;6.592;2023-07-02T05:43:47;20.20;94.60
51996;DHT22;38010;53.264;6.592;2023-07-02T05:46:12;20.20;94.50
51996;DHT22;38010;53.264;6.592;2023-07-02T05:48:40;20.20;94.60
51996;DHT22;38010;53.264;6.592;2023-07-02T05:51:06;20.10;94.50
51996;DHT22;38010;53.264;6.592;2023-07-02T05:53:31;20.20;94.50
51996;DHT22;38010;53.264;6.592;2023-07-02T05:55:57;20.20;94.70
51996;DHT22;38010;53.264;6.592;2023-07-02T05:58:23;20.20;94.70
51996;DHT22;38010;53.264;6.592;2023-07-02T06:00:48;20.20;94.50
51996;DHT22;38010;53.264;6.592;2023-07-02T06:03:20;20.20;94.70
51996;DHT22;38010;53.264;6.592;2023-07-02T06:05:47;20.20;94.70
51996;DHT22;38010;53.264;6.592;2023-07-02T06:08:14;20.20;94.40
51996;DHT22;38010;53.264;6.592;2023-07-02T06:10:40;20.20;94.30
51996;DHT22;38010;53.264;6.592;2023-07-02T06:13:05;20.20;94.30
51996;DHT22;38010;53.264;6.592;2023-07-02T06:15:31;20.20;94.20
51996;DHT22;38010;53.264;6.592;2023-07-02T06:17:57;20.20;94.50
51996;DHT22;38010;53.264;6.592;2023-07-02T06:20:22;20.20;94.20
51996;DHT22;38010;53.264;6.592;2023-07-02T06:22:48;20.20;94.30
51996;DHT22;38010;53.264;6.592;2023-07-02T06:25:14;20.20;94.20
51996;DHT22;38010;53.264;6.592;2023-07-02T06:27:39;20.20;94.20
51996;DHT22;38010;53.264;6.592;2023-07-02T06:30:05;20.20;94.30
51996;DHT22;38010;53.264;6.592;2023-07-02T06:32:31;20.20;94.10
51996;DHT22;38010;53.264;6.592;2023-07-02T06:34:57;20.20;93.90
51996;DHT22;38010;53.264;6.592;2023-07-02T06:37:23;20.20;94.00
51996;DHT22;38010;53.264;6.592;2023-07-02T06:39:49;20.20;94.00
51996;DHT22;38010;53.264;6.592;2023-07-02T06:42:14;20.20;93.90
51996;DHT22;38010;53.264;6.592;2023-07-02T06:44:41;20.20;93.60
51996;DHT22;38010;53.264;6.592;2023-07-02T06:47:07;20.20;93.60
51996;DHT22;38010;53.264;6.592;2023-07-02T06:49:33;20.20;93.40
51996;DHT22;38010;53.264;6.592;2023-07-02T06:51:58;20.20;93.40
51996;DHT22;38010;53.264;6.592;2023-07-02T06:54:26;20.20;93.40
51996;DHT22;38010;53.264;6.592;2023-07-02T06:56:51;20.20;93.40
51996;DHT22;38010;53.264;6.592;2023-07-02T06:59:21;20.20;93.40
51996;DHT22;38010;53.264;6.592;2023-07-02T07:01:47;20.20;93.40
51996;DHT22;38010;53.264;6.592;2023-07-02T07:04:13;20.20;93.20
51996;DHT22;38010;53.264;6.592;2023-07-02T07:06:39;20.20;93.30
51996;DHT22;38010;53.264;6.592;2023-07-02T07:09:04;20.20;93.40
51996;DHT22;38010;53.264;6.592;2023-07-02T07:11:30;20.30;93.50
51996;DHT22;38010;53.264;6.592;2023-07-02T07:13:56;20.30;93.60
51996;DHT22;38010;53.264;6.592;2023-07-02T07:16:21;20.30;93.60
51996;DHT22;38010;53.264;6.592;2023-07-02T07:18:48;20.30;93.60
51996;DHT22;38010;53.264;6.592;2023-07-02T07:21:14;20.30;93.50
51996;DHT22;38010;53.264;6.592;2023-07-02T07:23:40;20.30;93.60
51996;DHT22;38010;53.264;6.592;2023-07-02T07:26:06;20.30;93.60
51996;DHT22;38010;53.264;6.592;2023-07-02T07:28:32;20.30;93.60
51996;DHT22;38010;53.264;6.592;2023-07-02T07:30:57;20.30;93.40
51996;DHT22;38010;53.264;6.592;2023-07-02T07:33:23;20.30;93.50
51996;DHT22;38010;53.264;6.592;2023-07-02T07:35:49;20.30;93.40
51996;DHT22;38010;53.264;6.592;2023-07-02T07:38:15;20.30;93.50
51996;DHT22;38010;53.264;6.592;2023-07-02T07:40:42;20.30;93.40
51996;DHT22;38010;53.264;6.592;2023-07-02T07:43:08;20.30;93.40
51996;DHT22;38010;53.264;6.592;2023-07-02T07:45:33;20.30;93.30
51996;DHT22;38010;53.264;6.592;2023-07-02T07:48:00;20.30;93.30
51996;DHT22;38010;53.264;6.592;2023-07-02T07:50:26;20.30;93.20
51996;DHT22;38010;53.264;6.592;2023-07-02T07:52:51;20.30;93.20
51996;DHT22;38010;53.264;6.592;2023-07-02T07:55:17;20.30;93.00
51996;DHT22;38010;53.264;6.592;2023-07-02T07:57:43;20.30;92.90
51996;DHT22;38010;53.264;6.592;2023-07-02T08:00:09;20.30;92.80
51996;DHT22;38010;53.264;6.592;2023-07-02T08:02:35;20.30;92.80
51996;DHT22;38010;53.264;6.592;2023-07-02T08:05:01;20.30;92.40
51996;DHT22;38010;53.264;6.592;2023-07-02T08:07:28;20.30;92.50
51996;DHT22;38010;53.264;6.592;2023-07-02T08:09:53;20.30;92.20
51996;DHT22;38010;53.264;6.592;2023-07-02T08:12:19;20.30;92.20
51996;DHT22;38010;53.264;6.592;2023-07-02T08:14:45;20.30;92.30
51996;DHT22;38010;53.264;6.592;2023-07-02T08:17:11;20.30;92.20
51996;DHT22;38010;53.264;6.592;2023-07-02T08:19:37;20.30;92.20
51996;DHT22;38010;53.264;6.592;2023-07-02T08:22:02;20.30;92.20
51996;DHT22;38010;53.264;6.592;2023-07-02T08:24:29;20.30;91.90
51996;DHT22;38010;53.264;6.592;2023-07-02T08:26:57;20.30;92.10
51996;DHT22;38010;53.264;6.592;2023-07-02T08:29:23;20.30;92.10
51996;DHT22;38010;53.264;6.592;2023-07-02T08:31:48;20.30;92.30
51996;DHT22;38010;53.264;6.592;2023-07-02T08:34:14;20.30;92.30
51996;DHT22;38010;53.264;6.592;2023-07-02T08:36:40;20.30;92.40
51996;DHT22;38010;53.264;6.592;2023-07-02T08:39:09;20.30;92.50
51996;DHT22;38010;53.264;6.592;2023-07-02T08:41:45;20.30;92.60
51996;DHT22;38010;53.264;6.592;2023-07-02T08:44:12;20.30;92.60
51996;DHT22;38010;53.264;6.592;2023-07-02T08:46:42;20.30;92.70
51996;DHT22;38010;53.264;6.592;2023-07-02T08:49:08;20.30;92.80
51996;DHT22;38010;53.264;6.592;2023-07-02T08:51:34;20.40;92.80
51996;DHT22;38010;53.264;6.592;2023-07-02T08:54:01;20.40;92.90
51996;DHT22;38010;53.264;6.592;2023-07-02T08:56:26;20.40;93.00
51996;DHT22;38010;53.264;6.592;2023-07-02T08:58:52;20.40;92.90
51996;DHT22;38010;53.264;6.592;2023-07-02T09:01:18;20.40;92.90
51996;DHT22;38010;53.264;6.592;2023-07-02T09:03:44;20.40;93.00
51996;DHT22;38010;53.264;6.592;2023-07-02T09:06:11;20.40;93.00
51996;DHT22;38010;53.264;6.592;2023-07-02T09:08:37;20.50;93.00
51996;DHT22;38010;53.264;6.592;2023-07-02T09:11:13;20.40;92.90
51996;DHT22;38010;53.264;6.592;2023-07-02T09:13:48;20.40;92.80
51996;DHT22;38010;53.264;6.592;2023-07-02T09:16:21;20.40;92.80
51996;DHT22;38010;53.264;6.592;2023-07-02T09:19:05;20.40;92.80
51996;DHT22;38010;53.264;6.592;2023-07-02T09:21:46;20.50;92.80
51996;DHT22;38010;53.264;6.592;2023-07-02T09:24:13;20.40;92.70
51996;DHT22;38010;53.264;6.592;2023-07-02T09:27:00;20.40;92.50
51996;DHT22;38010;53.264;6.592;2023-07-02T09:29:31;20.40;92.50
51996;DHT22;38010;53.264;6.592;2023-07-02T09:32:02;20.40;92.40
51996;DHT22;38010;53.264;6.592;2023-07-02T09:34:32;20.50;92.50
51996;DHT22;38010;53.264;6.592;2023-07-02T09:36:59;20.50;92.30
51996;DHT22;38010;53.264;6.592;2023-07-02T09:39:30;20.50;92.30
51996;DHT22;38010;53.264;6.592;2023-07-02T09:41:58;20.50;92.80
51996;DHT22;38010;53.264;6.592;2023-07-02T09:44:31;20.50;92.30
51996;DHT22;38010;53.264;6.592;2023-07-02T09:47:05;20.50;92.60
51996;DHT22;38010;53.264;6.592;2023-07-02T09:49:36;20.40;92.60
51996;DHT22;38010;53.264;6.592;2023-07-02T09:52:09;20.50;92.30
51996;DHT22;38010;53.264;6.592;2023-07-02T09:54:36;20.40;92.30
51996;DHT22;38010;53.264;6.592;2023-07-02T09:57:03;20.40;92.30
51996;DHT22;38010;53.264;6.592;2023-07-02T09:59:29;20.40;92.00
51996;DHT22;38010;53.264;6.592;2023-07-02T10:01:56;20.40;91.90
51996;DHT22;38010;53.264;6.592;2023-07-02T10:04:22;20.40;92.00
51996;DHT22;38010;53.264;6.592;2023-07-02T10:06:55;20.40;92.00
51996;DHT22;38010;53.264;6.592;2023-07-02T10:09:37;20.40;92.10
51996;DHT22;38010;53.264;6.592;2023-07-02T10:12:23;20.40;92.00
51996;DHT22;38010;53.264;6.592;2023-07-02T10:14:50;20.40;91.90
51996;DHT22;38010;53.264;6.592;2023-07-02T10:17:33;20.40;92.00
51996;DHT22;38010;53.264;6.592;2023-07-02T10:20:05;20.40;91.90
51996;DHT22;38010;53.264;6.592;2023-07-02T10:22:49;20.40;91.90
51996;DHT22;38010;53.264;6.592;2023-07-02T10:25:26;20.40;91.90
51996;DHT22;38010;53.264;6.592;2023-07-02T10:27:52;20.40;91.70
51996;DHT22;38010;53.264;6.592;2023-07-02T10:30:18;20.40;92.00
51996;DHT22;38010;53.264;6.592;2023-07-02T10:32:44;20.40;91.80
51996;DHT22;38010;53.264;6.592;2023-07-02T10:35:19;20.40;91.80
51996;DHT22;38010;53.264;6.592;2023-07-02T10:37:45;20.40;91.70
51996;DHT22;38010;53.264;6.592;2023-07-02T10:40:11;20.40;91.70
51996;DHT22;38010;53.264;6.592;2023-07-02T10:42:48;20.40;91.70
51996;DHT22;38010;53.264;6.592;2023-07-02T10:45:14;20.40;91.90
51996;DHT22;38010;53.264;6.592;2023-07-02T10:47:40;20.40;91.70
51996;DHT22;38010;53.264;6.592;2023-07-02T10:50:20;20.40;91.80
51996;DHT22;38010;53.264;6.592;2023-07-02T10:52:47;20.40;91.50
51996;DHT22;38010;53.264;6.592;2023-07-02T10:55:24;20.40;91.60
51996;DHT22;38010;53.264;6.592;2023-07-02T10:58:02;20.40;91.50
51996;DHT22;38010;53.264;6.592;2023-07-02T11:00:29;20.40;91.60
51996;DHT22;38010;53.264;6.592;2023-07-02T11:02:54;20.40;91.40
51996;DHT22;38010;53.264;6.592;2023-07-02T11:05:20;20.40;91.60
51996;DHT22;38010;53.264;6.592;2023-07-02T11:07:46;20.40;92.00
51996;DHT22;38010;53.264;6.592;2023-07-02T11:10:18;20.50;92.10
51996;DHT22;38010;53.264;6.592;2023-07-02T11:12:44;20.40;92.30
51996;DHT22;38010;53.264;6.592;2023-07-02T11:15:14;20.40;92.30
51996;DHT22;38010;53.264;6.592;2023-07-02T11:17:40;20.40;92.20
51996;DHT22;38010;53.264;6.592;2023-07-02T11:20:11;20.40;92.20
51996;DHT22;38010;53.264;6.592;2023-07-02T11:22:38;20.40;92.30
51996;DHT22;38010;53.264;6.592;2023-07-02T11:25:17;20.50;92.30
51996;DHT22;38010;53.264;6.592;2023-07-02T11:27:44;20.40;92.20
51996;DHT22;38010;53.264;6.592;2023-07-02T11:30:11;20.50;92.30
51996;DHT22;38010;53.264;6.592;2023-07-02T11:32:53;20.50;92.30
51996;DHT22;38010;53.264;6.592;2023-07-02T11:35:19;20.50;92.20
51996;DHT22;38010;53.264;6.592;2023-07-02T11:37:45;20.50;92.20
51996;DHT22;38010;53.264;6.592;2023-07-02T11:40:12;20.40;92.10
51996;DHT22;38010;53.264;6.592;2023-07-02T11:42:38;20.40;92.20
51996;DHT22;38010;53.264;6.592;2023-07-02T11:45:04;20.40;92.30
51996;DHT22;38010;53.264;6.592;2023-07-02T11:47:30;20.40;92.30
51996;DHT22;38010;53.264;6.592;2023-07-02T11:49:56;20.40;92.30
51996;DHT22;38010;53.264;6.592;2023-07-02T11:52:22;20.40;92.20
51996;DHT22;38010;53.264;6.592;2023-07-02T11:54:48;20.50;92.10
51996;DHT22;38010;53.264;6.592;2023-07-02T11:57:13;20.40;91.80
51996;DHT22;38010;53.264;6.592;2023-07-02T11:59:41;20.40;91.90
51996;DHT22;38010;53.264;6.592;2023-07-02T12:02:06;20.50;91.80
51996;DHT22;38010;53.264;6.592;2023-07-02T12:04:32;20.40;92.10
51996;DHT22;38010;53.264;6.592;2023-07-02T12:06:58;20.40;92.10
51996;DHT22;38010;53.264;6.592;2023-07-02T12:09:26;20.40;92.10
51996;DHT22;38010;53.264;6.592;2023-07-02T12:11:53;20.40;92.10
51996;DHT22;38010;53.264;6.592;2023-07-02T12:14:19;20.40;92.00
51996;DHT22;38010;53.264;6.592;2023-07-02T12:16:44;20.50;92.20
51996;DHT22;38010;53.264;6.592;2023-07-02T12:19:10;20.40;92.10
51996;DHT22;38010;53.264;6.592;2023-07-02T12:21:36;20.50;92.10
51996;DHT22;38010;53.264;6.592;2023-07-02T12:24:02;20.50;92.00
51996;DHT22;38010;53.264;6.592;2023-07-02T12:26:28;20.50;92.00
51996;DHT22;38010;53.264;6.592;2023-07-02T12:28:54;20.50;92.10
51996;DHT22;38010;53.264;6.592;2023-07-02T12:31:20;20.60;91.60
51996;DHT22;38010;53.264;6.592;2023-07-02T12:33:46;20.60;91.90
51996;DHT22;38010;53.264;6.592;2023-07-02T12:36:11;20.60;91.80
51996;DHT22;38010;53.264;6.592;2023-07-02T12:38:39;20.60;91.80
51996;DHT22;38010;53.264;6.592;2023-07-02T12:41:05;20.70;92.30
51996;DHT22;38010;53.264;6.592;2023-07-02T12:43:31;20.70;92.20
51996;DHT22;38010;53.264;6.592;2023-07-02T12:45:56;20.70;91.30
51996;DHT22;38010;53.264;6.592;2023-07-02T12:48:22;20.70;91.30
51996;DHT22;38010;53.264;6.592;2023-07-02T12:50:58;20.70;91.60
51996;DHT22;38010;53.264;6.592;2023-07-02T12:53:24;20.70;91.50
51996;DHT22;38010;53.264;6.592;2023-07-02T12:55:50;20.70;91.20
51996;DHT22;38010;53.264;6.592;2023-07-02T12:58:16;20.70;91.50
51996;DHT22;38010;53.264;6.592;2023-07-02T13:00:42;20.70;91.70
51996;DHT22;38010;53.264;6.592;2023-07-02T13:03:11;20.70;91.50
51996;DHT22;38010;53.264;6.592;2023-07-02T13:05:36;20.70;91.90
51996;DHT22;38010;53.264;6.592;2023-07-02T13:08:02;20.70;91.90
51996;DHT22;38010;53.264;6.592;2023-07-02T13:10:29;20.60;91.40
51996;DHT22;38010;53.264;6.592;2023-07-02T13:12:55;20.60;90.80
51996;DHT22;38010;53.264;6.592;2023-07-02T13:15:21;20.70;91.10
51996;DHT22;38010;53.264;6.592;2023-07-02T13:17:47;20.70;90.90
51996;DHT22;38010;53.264;6.592;2023-07-02T13:20:13;20.80;90.60
51996;DHT22;38010;53.264;6.592;2023-07-02T13:22:39;20.90;90.50
51996;DHT22;38010;53.264;6.592;2023-07-02T13:25:05;20.90;90.40
51996;DHT22;38010;53.264;6.592;2023-07-02T13:27:31;20.90;90.40
51996;DHT22;38010;53.264;6.592;2023-07-02T13:29:57;20.90;90.40
51996;DHT22;38010;53.264;6.592;2023-07-02T13:32:22;20.90;90.50
51996;DHT22;38010;53.264;6.592;2023-07-02T13:34:48;20.90;90.40
51996;DHT22;38010;53.264;6.592;2023-07-02T13:37:14;20.90;90.50
51996;DHT22;38010;53.264;6.592;2023-07-02T13:39:47;20.90;90.50
51996;DHT22;38010;53.264;6.592;2023-07-02T13:42:13;20.90;90.60
51996;DHT22;38010;53.264;6.592;2023-07-02T13:44:38;20.90;90.60
51996;DHT22;38010;53.264;6.592;2023-07-02T13:47:05;21.00;90.60
51996;DHT22;38010;53.264;6.592;2023-07-02T13:49:31;21.00;90.70
51996;DHT22;38010;53.264;6.592;2023-07-02T13:51:57;21.00;90.90
51996;DHT22;38010;53.264;6.592;2023-07-02T13:54:23;21.00;90.60
51996;DHT22;38010;53.264;6.592;2023-07-02T13:56:49;21.00;90.60
51996;DHT22;38010;53.264;6.592;2023-07-02T13:59:15;21.10;90.80
51996;DHT22;38010;53.264;6.592;2023-07-02T14:01:42;21.10;90.80
51996;DHT22;38010;53.264;6.592;2023-07-02T14:04:08;21.10;90.90
51996;DHT22;38010;53.264;6.592;2023-07-02T14:06:33;21.20;90.90
51996;DHT22;38010;53.264;6.592;2023-07-02T14:08:59;21.30;90.80
51996;DHT22;38010;53.264;6.592;2023-07-02T14:11:26;21.30;90.90
51996;DHT22;38010;53.264;6.592;2023-07-02T14:13:53;21.30;90.80
51996;DHT22;38010;53.264;6.592;2023-07-02T14:16:19;21.30;91.00
51996;DHT22;38010;53.264;6.592;2023-07-02T14:18:45;21.30;90.90
51996;DHT22;38010;53.264;6.592;2023-07-02T14:21:11;21.30;90.80
51996;DHT22;38010;53.264;6.592;2023-07-02T14:23:37;21.30;90.80
51996;DHT22;38010;53.264;6.592;2023-07-02T14:26:02;21.20;90.80
51996;DHT22;38010;53.264;6.592;2023-07-02T14:28:28;21.20;90.80
51996;DHT22;38010;53.264;6.592;2023-07-02T14:31:03;21.30;90.90
51996;DHT22;38010;53.264;6.592;2023-07-02T14:33:32;21.20;90.70
51996;DHT22;38010;53.264;6.592;2023-07-02T14:35:59;21.20;90.60
51996;DHT22;38010;53.264;6.592;2023-07-02T14:38:25;21.20;90.60
51996;DHT22;38010;53.264;6.592;2023-07-02T14:40:52;21.20;90.70
51996;DHT22;38010;53.264;6.592;2023-07-02T14:43:18;21.10;90.70
51996;DHT22;38010;53.264;6.592;2023-07-02T14:45:49;21.10;90.70
51996;DHT22;38010;53.264;6.592;2023-07-02T14:48:16;21.10;90.70
51996;DHT22;38010;53.264;6.592;2023-07-02T14:50:48;21.10;90.80
51996;DHT22;38010;53.264;6.592;2023-07-02T14:53:14;21.20;90.90
51996;DHT22;38010;53.264;6.592;2023-07-02T14:55:40;21.30;91.00
51996;DHT22;38010;53.264;6.592;2023-07-02T14:58:07;21.30;90.80
51996;DHT22;38010;53.264;6.592;2023-07-02T15:00:33;21.30;90.70
51996;DHT22;38010;53.264;6.592;2023-07-02T15:02:59;21.30;90.60
51996;DHT22;38010;53.264;6.592;2023-07-02T15:05:25;21.20;90.60
51996;DHT22;38010;53.264;6.592;2023-07-02T15:07:50;21.20;90.80
51996;DHT22;38010;53.264;6.592;2023-07-02T15:10:18;21.20;90.60
51996;DHT22;38010;53.264;6.592;2023-07-02T15:12:44;21.20;90.80
51996;DHT22;38010;53.264;6.592;2023-07-02T15:15:09;21.20;90.70
51996;DHT22;38010;53.264;6.592;2023-07-02T15:17:35;21.20;90.50
51996;DHT22;38010;53.264;6.592;2023-07-02T15:20:01;21.10;90.40
51996;DHT22;38010;53.264;6.592;2023-07-02T15:22:29;21.10;90.40
51996;DHT22;38010;53.264;6.592;2023-07-02T15:24:55;21.10;90.40
51996;DHT22;38010;53.264;6.592;2023-07-02T15:27:21;21.10;90.40
51996;DHT22;38010;53.264;6.592;2023-07-02T15:29:46;21.10;90.40